Time;durP1;ratioP1;P1;durP2;ratioP2;P2;SDS_P1;SDS_P2;PMS_P1;PMS_P2;Temp;Humidity;BMP_temperature;BMP_pressure;BME280_temperature;BME280_humidity;BME280_pressure;Samples;Min_cycle;Max_cycle;Signal;HPM_P1;HPM_P2
2023/10/22 00:01:52;;;;;;;4.97;1.40;;;;;;;;;;5064811;28;20052;-62
2023/10/22 00:04:18;;;;;;;7.80;2.03;;;;;;;;;;5061118;28;20356;-62
2023/10/22 00:06:44;;;;;;;6.00;1.73;;;;;;;;;;5068353;28;20041;-62
2023/10/22 00:09:10;;;;;;;6.17;1.70;;;;;;;;;;5068854;28;20040;-62
2023/10/22 00:11:36;;;;;;;4.60;1.30;;;;;;;;;;5068937;28;20053;-62
2023/10/22 00:14:02;;;;;;;3.87;1.20;;;;;;;;;;5069588;28;20409;-62
2023/10/22 00:16:28;;;;;;;9.17;1.40;;;;;;;;;;5053117;28;20049;-62
2023/10/22 00:18:54;;;;;;;6.20;1.67;;;;;;;;;;5053525;28;20045;-61
2023/10/22 00:21:20;;;;;;;4.43;1.23;;;;;;;;;;5049710;28;20045;-62
2023/10/22 00:23:46;;;;;;;6.17;1.40;;;;;;;;;;5048545;28;20118;-62
2023/10/22 00:26:15;;;;;;;6.37;1.00;;;;;;;;;;5049072;28;20048;-62
2023/10/22 00:28:41;;;;;;;8.33;1.30;;;;;;;;;;5049444;28;20461;-62
2023/10/22 00:31:07;;;;;;;4.73;0.90;;;;;;;;;;5066378;28;20047;-62
2023/10/22 00:33:33;;;;;;;5.87;0.80;;;;;;;;;;5066261;28;20072;-62
2023/10/22 00:35:59;;;;;;;5.13;1.03;;;;;;;;;;5062108;28;20068;-62
2023/10/22 00:38:26;;;;;;;5.27;1.07;;;;;;;;;;5067964;28;20429;-62
2023/10/22 00:40:52;;;;;;;5.77;1.13;;;;;;;;;;5049028;28;21248;-62
2023/10/22 00:43:18;;;;;;;4.37;1.10;;;;;;;;;;5069036;28;20103;-62
2023/10/22 00:45:45;;;;;;;10.83;1.20;;;;;;;;;;5066789;28;20501;-62
2023/10/22 00:48:11;;;;;;;3.70;0.93;;;;;;;;;;5065123;28;20502;-62
2023/10/22 00:50:41;;;;;;;5.60;1.00;;;;;;;;;;5053713;28;20517;-62
2023/10/22 00:53:07;;;;;;;4.97;0.87;;;;;;;;;;5048546;28;20045;-62
2023/10/22 00:55:38;;;;;;;6.23;1.27;;;;;;;;;;5047911;28;20352;-61
2023/10/22 00:58:04;;;;;;;5.23;1.03;;;;;;;;;;5048672;28;20053;-62
2023/10/22 01:00:30;;;;;;;4.70;0.93;;;;;;;;;;5060914;28;20290;-62
2023/10/22 01:02:56;;;;;;;3.33;0.90;;;;;;;;;;5069307;28;20471;-62
2023/10/22 01:05:23;;;;;;;3.97;0.50;;;;;;;;;;5067717;28;20059;-61
2023/10/22 01:07:49;;;;;;;6.10;1.20;;;;;;;;;;5068182;28;20040;-61
2023/10/22 01:10:15;;;;;;;5.67;1.00;;;;;;;;;;5064090;28;20098;-62
2023/10/22 01:12:41;;;;;;;4.60;0.80;;;;;;;;;;5050076;28;20052;-61
2023/10/22 01:15:07;;;;;;;3.43;0.87;;;;;;;;;;5048320;28;20037;-61
2023/10/22 01:17:33;;;;;;;10.43;2.00;;;;;;;;;;5053369;28;20529;-61
2023/10/22 01:19:59;;;;;;;6.13;1.23;;;;;;;;;;5060850;28;20061;-61
2023/10/22 01:22:25;;;;;;;4.30;1.13;;;;;;;;;;5047697;28;20052;-62
2023/10/22 01:24:51;;;;;;;5.83;1.00;;;;;;;;;;5057247;28;20053;-62
2023/10/22 01:27:17;;;;;;;4.57;0.87;;;;;;;;;;5063481;28;21027;-61
2023/10/22 01:29:43;;;;;;;4.80;1.00;;;;;;;;;;5047961;28;20041;-62
2023/10/22 01:32:09;;;;;;;8.90;0.83;;;;;;;;;;5054033;28;20048;-62
2023/10/22 01:34:36;;;;;;;4.00;0.80;;;;;;;;;;5065396;28;20056;-62
2023/10/22 01:37:02;;;;;;;6.23;1.17;;;;;;;;;;5066332;28;20071;-62
2023/10/22 01:39:28;;;;;;;6.37;1.53;;;;;;;;;;5057038;28;20057;-62
2023/10/22 01:41:54;;;;;;;7.00;1.57;;;;;;;;;;5059124;28;20097;-62
2023/10/22 01:44:20;;;;;;;8.07;0.83;;;;;;;;;;5065870;28;20441;-61
2023/10/22 01:46:46;;;;;;;5.47;1.20;;;;;;;;;;5063083;28;20037;-62
2023/10/22 01:49:12;;;;;;;6.10;1.50;;;;;;;;;;5061402;28;20113;-62
2023/10/22 01:51:38;;;;;;;6.00;1.33;;;;;;;;;;5063216;28;20052;-62
2023/10/22 01:54:06;;;;;;;6.30;1.90;;;;;;;;;;5054304;28;20033;-61
2023/10/22 01:56:32;;;;;;;6.17;1.33;;;;;;;;;;5060505;28;20602;-62
2023/10/22 01:58:59;;;;;;;6.23;1.33;;;;;;;;;;5062227;28;20124;-61
2023/10/22 02:01:26;;;;;;;5.50;1.10;;;;;;;;;;5066023;28;20044;-62
2023/10/22 02:03:52;;;;;;;7.00;1.10;;;;;;;;;;5060730;28;20071;-62
2023/10/22 02:06:18;;;;;;;4.37;1.20;;;;;;;;;;5060755;28;20039;-62
2023/10/22 02:08:45;;;;;;;6.60;1.10;;;;;;;;;;5065484;28;20047;-62
2023/10/22 02:11:12;;;;;;;7.63;1.37;;;;;;;;;;5066418;28;20115;-62
2023/10/22 02:13:38;;;;;;;7.43;1.50;;;;;;;;;;5065688;28;20037;-62
2023/10/22 02:16:04;;;;;;;6.77;1.30;;;;;;;;;;5065759;28;20525;-62
2023/10/22 02:18:30;;;;;;;9.23;1.20;;;;;;;;;;5065583;28;20032;-62
2023/10/22 02:20:59;;;;;;;4.43;1.23;;;;;;;;;;5058241;28;20559;-62
2023/10/22 02:23:25;;;;;;;6.73;1.83;;;;;;;;;;5066171;28;20053;-62
2023/10/22 02:25:51;;;;;;;7.70;1.60;;;;;;;;;;5058238;28;20051;-62
2023/10/22 02:28:17;;;;;;;4.37;1.40;;;;;;;;;;5058852;28;20032;-62
2023/10/22 02:30:47;;;;;;;6.77;1.40;;;;;;;;;;5065349;28;20040;-63
2023/10/22 02:33:13;;;;;;;3.90;1.20;;;;;;;;;;5066079;28;20090;-63
2023/10/22 02:35:40;;;;;;;5.63;1.43;;;;;;;;;;5059226;28;20057;-62
2023/10/22 02:38:06;;;;;;;6.17;1.73;;;;;;;;;;5065862;28;20442;-63
2023/10/22 02:40:35;;;;;;;6.97;1.50;;;;;;;;;;5056270;28;20142;-62
2023/10/22 02:43:02;;;;;;;12.47;2.13;;;;;;;;;;5057582;28;20052;-63
2023/10/22 02:45:29;;;;;;;9.53;2.20;;;;;;;;;;5052772;28;20056;-63
2023/10/22 02:47:55;;;;;;;4.17;1.50;;;;;;;;;;5061615;28;20094;-64
2023/10/22 02:50:24;;;;;;;4.83;1.43;;;;;;;;;;5060854;28;20137;-64
2023/10/22 02:52:50;;;;;;;4.73;1.63;;;;;;;;;;5047102;28;20077;-64
2023/10/22 02:55:16;;;;;;;8.03;1.53;;;;;;;;;;5047974;28;20071;-64
2023/10/22 02:57:42;;;;;;;5.27;1.90;;;;;;;;;;5053389;28;20048;-65
2023/10/22 03:00:10;;;;;;;6.60;1.87;;;;;;;;;;5065099;28;20057;-64
2023/10/22 03:02:37;;;;;;;6.60;2.23;;;;;;;;;;5066544;28;20607;-64
2023/10/22 03:05:03;;;;;;;5.47;1.70;;;;;;;;;;5057786;28;20058;-64
2023/10/22 03:07:29;;;;;;;4.93;1.60;;;;;;;;;;5069473;28;20048;-64
2023/10/22 03:09:56;;;;;;;8.67;2.50;;;;;;;;;;5068429;28;20052;-64
2023/10/22 03:12:22;;;;;;;6.27;1.90;;;;;;;;;;5061247;28;20099;-65
2023/10/22 03:14:50;;;;;;;7.73;2.30;;;;;;;;;;5068292;28;20048;-64
2023/10/22 03:17:17;;;;;;;5.87;2.03;;;;;;;;;;5063707;28;20041;-64
2023/10/22 03:19:43;;;;;;;5.50;1.90;;;;;;;;;;5068928;28;20451;-64
2023/10/22 03:22:10;;;;;;;7.70;2.43;;;;;;;;;;5068584;28;20099;-64
2023/10/22 03:24:36;;;;;;;7.17;2.63;;;;;;;;;;5067643;28;20048;-63
2023/10/22 03:27:04;;;;;;;6.10;2.53;;;;;;;;;;5068144;28;20533;-63
2023/10/22 03:29:30;;;;;;;6.07;2.93;;;;;;;;;;5067221;28;20557;-63
2023/10/22 03:31:56;;;;;;;7.77;3.20;;;;;;;;;;5067795;28;20557;-63
2023/10/22 03:34:22;;;;;;;8.87;3.03;;;;;;;;;;5065556;28;20044;-63
2023/10/22 03:36:48;;;;;;;12.37;3.60;;;;;;;;;;5061153;28;20048;-63
2023/10/22 03:39:15;;;;;;;9.80;4.53;;;;;;;;;;5057247;28;20079;-63
2023/10/22 03:41:41;;;;;;;7.27;4.03;;;;;;;;;;5066034;28;21101;-63
2023/10/22 03:44:07;;;;;;;7.90;2.80;;;;;;;;;;5067720;28;20056;-63
2023/10/22 03:46:33;;;;;;;10.87;4.07;;;;;;;;;;5068666;28;20045;-62
2023/10/22 03:48:59;;;;;;;7.73;3.37;;;;;;;;;;5067163;28;20044;-63
2023/10/22 03:51:25;;;;;;;7.97;3.23;;;;;;;;;;5060816;28;20063;-63
2023/10/22 03:53:56;;;;;;;13.13;3.90;;;;;;;;;;5068312;28;20047;-62
2023/10/22 03:56:22;;;;;;;10.33;3.40;;;;;;;;;;5056974;28;21421;-63
2023/10/22 03:58:48;;;;;;;5.47;3.43;;;;;;;;;;5061096;28;20129;-63
2023/10/22 04:01:14;;;;;;;11.10;4.30;;;;;;;;;;5051514;28;20525;-63
2023/10/22 04:03:40;;;;;;;7.67;4.00;;;;;;;;;;5049711;28;20045;-63
2023/10/22 04:06:06;;;;;;;7.87;3.70;;;;;;;;;;5061490;28;20048;-63
2023/10/22 04:08:32;;;;;;;9.20;4.00;;;;;;;;;;5067328;28;20461;-63
2023/10/22 04:10:58;;;;;;;7.60;3.93;;;;;;;;;;5067996;28;20048;-63
2023/10/22 04:13:24;;;;;;;8.97;4.57;;;;;;;;;;5059298;28;20127;-62
2023/10/22 04:15:51;;;;;;;7.93;3.63;;;;;;;;;;5064855;28;20577;-63
2023/10/22 04:18:19;;;;;;;8.37;3.60;;;;;;;;;;5066765;28;20048;-63
2023/10/22 04:20:45;;;;;;;7.17;3.93;;;;;;;;;;5064093;28;20048;-63
2023/10/22 04:23:11;;;;;;;4.97;3.23;;;;;;;;;;5051513;28;20596;-63
2023/10/22 04:25:39;;;;;;;7.63;3.67;;;;;;;;;;5057382;28;20059;-63
2023/10/22 04:28:05;;;;;;;6.27;3.33;;;;;;;;;;5067829;28;20123;-63
2023/10/22 04:30:33;;;;;;;6.43;3.40;;;;;;;;;;5066761;28;20154;-63
2023/10/22 04:32:59;;;;;;;6.13;3.13;;;;;;;;;;5066105;28;20443;-63
2023/10/22 04:35:25;;;;;;;6.23;2.90;;;;;;;;;;5066405;28;20056;-63
2023/10/22 04:37:54;;;;;;;5.20;2.80;;;;;;;;;;5063482;28;20045;-63
2023/10/22 04:40:20;;;;;;;6.23;2.40;;;;;;;;;;5056211;28;20052;-63
2023/10/22 04:42:47;;;;;;;4.40;2.20;;;;;;;;;;5066698;28;20051;-63
2023/10/22 04:45:13;;;;;;;4.03;2.50;;;;;;;;;;5067328;28;20054;-62
2023/10/22 04:47:39;;;;;;;4.17;2.50;;;;;;;;;;5065699;28;20413;-63
2023/10/22 04:50:05;;;;;;;4.47;2.43;;;;;;;;;;5067151;28;20032;-63
2023/10/22 04:52:33;;;;;;;5.03;2.70;;;;;;;;;;5062633;28;20048;-63
2023/10/22 04:54:59;;;;;;;5.53;2.83;;;;;;;;;;5066891;28;20123;-63
2023/10/22 04:57:26;;;;;;;4.27;2.83;;;;;;;;;;5066273;28;20301;-63
2023/10/22 04:59:53;;;;;;;4.23;2.80;;;;;;;;;;5055600;28;20060;-63
2023/10/22 05:02:19;;;;;;;5.67;2.77;;;;;;;;;;5059982;28;20465;-63
2023/10/22 05:04:48;;;;;;;5.83;2.93;;;;;;;;;;5063142;28;20041;-63
2023/10/22 05:07:15;;;;;;;4.07;3.00;;;;;;;;;;5066666;28;20032;-63
2023/10/22 05:09:41;;;;;;;3.47;2.73;;;;;;;;;;5065830;28;20537;-63
2023/10/22 05:12:07;;;;;;;10.40;3.30;;;;;;;;;;5062335;28;20037;-64
2023/10/22 05:14:33;;;;;;;5.50;3.50;;;;;;;;;;5060854;28;20052;-64
2023/10/22 05:16:59;;;;;;;5.63;4.17;;;;;;;;;;5050510;28;20049;-64
2023/10/22 05:19:26;;;;;;;5.33;3.53;;;;;;;;;;5058330;28;20080;-64
2023/10/22 05:21:52;;;;;;;6.20;3.27;;;;;;;;;;5064949;28;20049;-64
2023/10/22 05:24:18;;;;;;;4.03;2.40;;;;;;;;;;5061801;28;20045;-64
2023/10/22 05:26:44;;;;;;;4.27;2.20;;;;;;;;;;5062590;28;20095;-63
2023/10/22 05:29:11;;;;;;;4.90;2.47;;;;;;;;;;5066083;28;20092;-63
2023/10/22 05:31:37;;;;;;;4.00;2.23;;;;;;;;;;5066379;28;20051;-63
2023/10/22 05:34:03;;;;;;;5.23;2.33;;;;;;;;;;5056808;28;20086;-63
2023/10/22 05:36:29;;;;;;;5.67;3.17;;;;;;;;;;5066250;28;20113;-63
2023/10/22 05:38:55;;;;;;;5.83;3.47;;;;;;;;;;5065673;28;20060;-64
2023/10/22 05:41:22;;;;;;;7.13;3.50;;;;;;;;;;5057808;28;20048;-64
2023/10/22 05:43:49;;;;;;;9.73;4.07;;;;;;;;;;5056124;28;20125;-63
2023/10/22 05:46:15;;;;;;;8.40;4.43;;;;;;;;;;5064916;28;20516;-63
2023/10/22 05:48:41;;;;;;;7.33;3.60;;;;;;;;;;5067027;28;20110;-64
2023/10/22 05:51:07;;;;;;;8.33;3.23;;;;;;;;;;5060546;28;20037;-64
2023/10/22 05:53:33;;;;;;;8.83;2.80;;;;;;;;;;5058147;28;20494;-63
2023/10/22 05:55:59;;;;;;;9.87;2.90;;;;;;;;;;5067118;28;20037;-63
2023/10/22 05:58:25;;;;;;;6.17;3.30;;;;;;;;;;5064980;28;20503;-64
2023/10/22 06:00:52;;;;;;;8.20;4.80;;;;;;;;;;5059753;28;20095;-63
2023/10/22 06:03:18;;;;;;;32.97;7.97;;;;;;;;;;5063229;28;20047;-63
2023/10/22 06:05:45;;;;;;;18.00;7.00;;;;;;;;;;5058210;28;20415;-63
2023/10/22 06:08:11;;;;;;;12.57;6.90;;;;;;;;;;5065688;28;20506;-63
2023/10/22 06:10:44;;;;;;;16.83;8.70;;;;;;;;;;5064410;28;20056;-63
2023/10/22 06:13:11;;;;;;;19.20;11.80;;;;;;;;;;5063961;28;20049;-64
2023/10/22 06:15:38;;;;;;;15.57;7.93;;;;;;;;;;5059938;28;20041;-63
2023/10/22 06:18:04;;;;;;;22.23;8.63;;;;;;;;;;5067225;28;20048;-63
2023/10/22 06:20:31;;;;;;;17.57;9.57;;;;;;;;;;5064360;28;20458;-64
2023/10/22 06:22:57;;;;;;;14.77;7.30;;;;;;;;;;5059728;28;20037;-63
2023/10/22 06:25:23;;;;;;;13.13;7.07;;;;;;;;;;5063196;28;20530;-63
2023/10/22 06:27:50;;;;;;;16.47;8.40;;;;;;;;;;5065895;28;20060;-63
2023/10/22 06:30:21;;;;;;;16.00;8.33;;;;;;;;;;5053179;28;20110;-63
2023/10/22 06:32:48;;;;;;;13.53;7.53;;;;;;;;;;5058324;28;20384;-63
2023/10/22 06:35:14;;;;;;;14.77;6.63;;;;;;;;;;5068143;28;20072;-63
2023/10/22 06:37:40;;;;;;;19.73;9.13;;;;;;;;;;5064462;28;20068;-63
2023/10/22 06:40:07;;;;;;;12.10;6.57;;;;;;;;;;5056664;28;20098;-63
2023/10/22 06:42:33;;;;;;;20.90;8.13;;;;;;;;;;5071877;28;20124;-63
2023/10/22 06:44:59;;;;;;;10.53;5.43;;;;;;;;;;5070927;28;20044;-63
2023/10/22 06:47:26;;;;;;;13.37;6.27;;;;;;;;;;5071654;28;20052;-63
2023/10/22 06:49:52;;;;;;;13.70;6.43;;;;;;;;;;5071577;28;20502;-63
2023/10/22 06:52:19;;;;;;;14.33;7.07;;;;;;;;;;5071109;28;20139;-63
2023/10/22 06:54:45;;;;;;;13.73;6.47;;;;;;;;;;5071003;28;20056;-63
2023/10/22 06:57:11;;;;;;;17.57;7.10;;;;;;;;;;5071444;28;20040;-63
2023/10/22 06:59:37;;;;;;;15.17;6.97;;;;;;;;;;5071031;28;20059;-65
2023/10/22 07:02:03;;;;;;;15.57;6.57;;;;;;;;;;5071238;28;20044;-63
2023/10/22 07:04:29;;;;;;;14.97;7.50;;;;;;;;;;5070835;28;21022;-63
2023/10/22 07:06:55;;;;;;;15.00;6.30;;;;;;;;;;5071513;28;20045;-63
2023/10/22 07:09:21;;;;;;;11.47;6.63;;;;;;;;;;5071486;28;20347;-62
2023/10/22 07:11:47;;;;;;;10.80;6.00;;;;;;;;;;5071358;28;20051;-63
2023/10/22 07:14:13;;;;;;;14.27;6.93;;;;;;;;;;5070671;28;20530;-63
2023/10/22 07:16:40;;;;;;;12.40;6.20;;;;;;;;;;5071464;28;20105;-63
2023/10/22 07:19:06;;;;;;;18.20;7.60;;;;;;;;;;5069542;28;20059;-63
2023/10/22 07:21:32;;;;;;;14.23;6.00;;;;;;;;;;5070960;28;20082;-63
2023/10/22 07:23:58;;;;;;;13.03;6.23;;;;;;;;;;5070839;28;20063;-63
2023/10/22 07:26:26;;;;;;;15.73;6.50;;;;;;;;;;5070719;28;20040;-63
2023/10/22 07:28:52;;;;;;;21.03;8.80;;;;;;;;;;5068902;28;20055;-63
2023/10/22 07:31:18;;;;;;;12.67;6.03;;;;;;;;;;5070665;28;20052;-63
2023/10/22 07:33:44;;;;;;;12.43;6.67;;;;;;;;;;5070684;28;20044;-63
2023/10/22 07:36:11;;;;;;;13.97;6.57;;;;;;;;;;5070646;28;20422;-63
2023/10/22 07:38:40;;;;;;;11.73;6.13;;;;;;;;;;5070521;28;20064;-63
2023/10/22 07:41:07;;;;;;;11.20;5.67;;;;;;;;;;5070906;28;20052;-63
2023/10/22 07:43:33;;;;;;;13.17;5.73;;;;;;;;;;5070596;28;20077;-63
2023/10/22 07:46:00;;;;;;;11.97;6.10;;;;;;;;;;5070268;28;20080;-63
2023/10/22 07:48:26;;;;;;;14.30;5.37;;;;;;;;;;5070055;28;20056;-63
2023/10/22 07:50:52;;;;;;;13.30;5.03;;;;;;;;;;5070549;28;20084;-63
2023/10/22 07:53:18;;;;;;;9.93;5.73;;;;;;;;;;5070104;28;20063;-63
2023/10/22 07:55:45;;;;;;;10.10;5.13;;;;;;;;;;5069862;28;20087;-63
2023/10/22 07:58:11;;;;;;;14.57;6.47;;;;;;;;;;5070171;28;20052;-63
2023/10/22 08:00:38;;;;;;;8.83;4.93;;;;;;;;;;5070281;28;20727;-63
2023/10/22 08:03:04;;;;;;;13.30;6.50;;;;;;;;;;5070508;28;20044;-63
2023/10/22 08:05:31;;;;;;;11.37;5.13;;;;;;;;;;5069864;28;20117;-63
2023/10/22 08:07:57;;;;;;;16.87;7.13;;;;;;;;;;5070527;28;20048;-63
2023/10/22 08:10:23;;;;;;;13.23;5.53;;;;;;;;;;5068976;28;20125;-63
2023/10/22 08:12:49;;;;;;;9.67;4.87;;;;;;;;;;5069993;28;20456;-63
2023/10/22 08:15:15;;;;;;;10.67;5.67;;;;;;;;;;5070069;28;20041;-63
2023/10/22 08:17:41;;;;;;;12.37;5.67;;;;;;;;;;5070073;28;20036;-63
2023/10/22 08:20:08;;;;;;;12.80;5.10;;;;;;;;;;5069074;28;20048;-63
2023/10/22 08:22:34;;;;;;;15.33;4.37;;;;;;;;;;5070050;28;20084;-63
2023/10/22 08:25:00;;;;;;;15.90;5.43;;;;;;;;;;5068304;28;20154;-62
2023/10/22 08:27:26;;;;;;;10.97;4.20;;;;;;;;;;5069550;28;20048;-62
2023/10/22 08:29:52;;;;;;;9.77;4.90;;;;;;;;;;5068275;28;20049;-63
2023/10/22 08:32:18;;;;;;;11.50;3.83;;;;;;;;;;5069133;28;20045;-63
2023/10/22 08:34:44;;;;;;;11.03;3.93;;;;;;;;;;5069571;28;20048;-62
2023/10/22 08:37:11;;;;;;;6.80;3.73;;;;;;;;;;5069274;28;20506;-62
2023/10/22 08:39:37;;;;;;;11.90;4.73;;;;;;;;;;5067810;28;20525;-62
2023/10/22 08:42:09;;;;;;;8.37;3.23;;;;;;;;;;5068271;28;20566;-62
2023/10/22 08:44:40;;;;;;;10.70;3.30;;;;;;;;;;5069419;28;20580;-62
2023/10/22 08:47:08;;;;;;;9.23;2.97;;;;;;;;;;5068770;28;20047;-62
2023/10/22 08:49:35;;;;;;;8.50;3.30;;;;;;;;;;5069144;28;20444;-62
2023/10/22 08:52:01;;;;;;;8.87;2.80;;;;;;;;;;5067602;28;20072;-62
2023/10/22 08:54:27;;;;;;;7.77;2.70;;;;;;;;;;5069227;28;20051;-63
2023/10/22 08:56:53;;;;;;;9.93;2.87;;;;;;;;;;5068797;28;20040;-63
2023/10/22 08:59:19;;;;;;;7.93;2.60;;;;;;;;;;5068734;28;20121;-63
2023/10/22 09:01:47;;;;;;;5.97;2.30;;;;;;;;;;5068560;28;20619;-62
2023/10/22 09:04:13;;;;;;;5.83;2.77;;;;;;;;;;5069268;28;20044;-63
2023/10/22 09:06:39;;;;;;;8.63;2.43;;;;;;;;;;5068745;28;20091;-63
2023/10/22 09:09:05;;;;;;;7.20;2.60;;;;;;;;;;5068810;28;20052;-63
2023/10/22 09:11:31;;;;;;;8.17;2.60;;;;;;;;;;5069024;28;20525;-63
2023/10/22 09:13:57;;;;;;;6.23;2.27;;;;;;;;;;5068785;28;20132;-62
2023/10/22 09:16:31;;;;;;;5.53;2.50;;;;;;;;;;5068666;28;20132;-62
2023/10/22 09:18:58;;;;;;;6.97;2.67;;;;;;;;;;5068200;28;20041;-62
2023/10/22 09:21:24;;;;;;;7.67;2.43;;;;;;;;;;5068615;28;20044;-62
2023/10/22 09:24:10;;;;;;;6.83;2.50;;;;;;;;;;5068872;28;20057;-62
2023/10/22 09:26:43;;;;;;;6.13;2.33;;;;;;;;;;5068419;28;20051;-61
2023/10/22 09:29:09;;;;;;;3.88;2.05;;;;;;;;;;5068333;28;20064;-61
2023/10/22 09:31:36;;;;;;;4.90;2.50;;;;;;;;;;5067275;28;20048;-61
2023/10/22 09:34:03;;;;;;;7.70;3.00;;;;;;;;;;5068703;28;20399;-61
2023/10/22 09:36:29;;;;;;;6.93;3.00;;;;;;;;;;5068294;28;20131;-62
2023/10/22 09:38:55;;;;;;;5.20;2.27;;;;;;;;;;5068417;28;20045;-62
2023/10/22 09:41:26;;;;;;;6.07;2.50;;;;;;;;;;5068214;28;20037;-61
2023/10/22 09:43:53;;;;;;;5.70;3.20;;;;;;;;;;5067831;28;20056;-61
2023/10/22 09:46:19;;;;;;;7.63;2.63;;;;;;;;;;5068553;28;20102;-62
2023/10/22 09:48:49;;;;;;;4.70;2.40;;;;;;;;;;5068217;28;20051;-61
2023/10/22 09:51:16;;;;;;;6.73;2.77;;;;;;;;;;5068341;28;20494;-61
2023/10/22 09:53:54;;;;;;;6.27;2.77;;;;;;;;;;5067938;28;20059;-61
2023/10/22 09:56:21;;;;;;;7.87;2.80;;;;;;;;;;5068246;28;20123;-61
2023/10/22 09:58:49;;;;;;;7.60;2.50;;;;;;;;;;5068096;28;20044;-62
2023/10/22 10:01:15;;;;;;;7.10;2.57;;;;;;;;;;5068048;28;20080;-62
2023/10/22 10:03:42;;;;;;;7.30;3.10;;;;;;;;;;5068722;28;20041;-62
2023/10/22 10:06:08;;;;;;;7.40;2.47;;;;;;;;;;5068073;28;20044;-62
2023/10/22 10:08:41;;;;;;;5.30;2.53;;;;;;;;;;5067907;28;20041;-62
2023/10/22 10:11:11;;;;;;;4.88;2.10;;;;;;;;;;5067927;28;20056;-63
2023/10/22 10:13:37;;;;;;;6.97;2.07;;;;;;;;;;5072219;28;20064;-62
2023/10/22 10:16:06;;;;;;;9.00;2.50;;;;;;;;;;5072322;28;20063;-62
2023/10/22 10:18:51;;;;;;;5.27;1.90;;;;;;;;;;5071682;28;20052;-62
2023/10/22 10:21:36;;;;;;;11.43;2.50;;;;;;;;;;5072027;28;20060;-62
2023/10/22 10:24:20;;;;;;;3.97;2.07;;;;;;;;;;5072368;28;20044;-62
2023/10/22 10:26:47;;;;;;;4.00;1.60;;;;;;;;;;5071762;28;20049;-62
2023/10/22 10:29:24;;;;;;;6.90;1.37;;;;;;;;;;5071787;28;20606;-62
2023/10/22 10:31:51;;;;;;;6.13;1.43;;;;;;;;;;5071330;28;20094;-62
2023/10/22 10:34:24;;;;;;;4.23;1.63;;;;;;;;;;5071429;28;20052;-62
2023/10/22 10:36:50;;;;;;;6.53;2.13;;;;;;;;;;5069669;28;20044;-62
2023/10/22 10:39:35;;;;;;;5.07;1.60;;;;;;;;;;5052056;28;20272;-62
2023/10/22 10:42:01;;;;;;;5.63;2.00;;;;;;;;;;5055179;28;20112;-63
2023/10/22 10:44:30;;;;;;;4.57;1.70;;;;;;;;;;5067786;28;20044;-63
2023/10/22 10:47:15;;;;;;;3.07;1.50;;;;;;;;;;5054873;28;20119;-62
2023/10/22 10:50:02;;;;;;;4.93;1.70;;;;;;;;;;5064910;28;20094;-62
2023/10/22 10:52:48;;;;;;;3.60;1.43;;;;;;;;;;5058675;28;20049;-63
2023/10/22 10:55:15;;;;;;;4.90;1.53;;;;;;;;;;5068655;28;20048;-63
2023/10/22 10:57:42;;;;;;;2.97;1.13;;;;;;;;;;5064768;28;20053;-62
2023/10/22 11:00:19;;;;;;;4.77;1.57;;;;;;;;;;5056276;28;20048;-62
2023/10/22 11:02:45;;;;;;;6.93;1.50;;;;;;;;;;5069930;28;20049;-62
2023/10/22 11:05:12;;;;;;;3.93;1.20;;;;;;;;;;5058206;28;20557;-62
2023/10/22 11:07:38;;;;;;;5.23;1.43;;;;;;;;;;5070830;28;20063;-62
2023/10/22 11:10:10;;;;;;;4.50;1.20;;;;;;;;;;5060863;28;20554;-62
2023/10/22 11:12:38;;;;;;;4.13;1.23;;;;;;;;;;5057572;28;20041;-62
2023/10/22 11:15:05;;;;;;;2.47;1.00;;;;;;;;;;5066590;28;20047;-62
2023/10/22 11:17:31;;;;;;;5.60;1.20;;;;;;;;;;5067673;28;20045;-62
2023/10/22 11:19:57;;;;;;;6.23;1.10;;;;;;;;;;5053391;28;20514;-62
2023/10/22 11:22:23;;;;;;;3.77;1.30;;;;;;;;;;5067418;28;20119;-62
2023/10/22 11:24:51;;;;;;;5.17;1.50;;;;;;;;;;5068121;28;20040;-62
2023/10/22 11:27:17;;;;;;;3.17;1.40;;;;;;;;;;5069461;28;20045;-62
2023/10/22 11:29:44;;;;;;;4.57;1.40;;;;;;;;;;5069063;28;20095;-62
2023/10/22 11:32:13;;;;;;;4.97;1.80;;;;;;;;;;5068503;28;20037;-62
2023/10/22 11:34:49;;;;;;;7.97;1.83;;;;;;;;;;5053051;28;20052;-63
2023/10/22 11:37:18;;;;;;;5.23;1.83;;;;;;;;;;5059383;28;20040;-62
2023/10/22 11:39:44;;;;;;;7.40;1.73;;;;;;;;;;5054295;28;20056;-62
2023/10/22 11:42:11;;;;;;;5.53;1.87;;;;;;;;;;5062783;28;20491;-62
2023/10/22 11:44:37;;;;;;;12.83;2.07;;;;;;;;;;5059058;28;20055;-62
2023/10/22 11:47:24;;;;;;;4.70;1.87;;;;;;;;;;5067249;28;20395;-62
2023/10/22 11:49:50;;;;;;;5.03;1.57;;;;;;;;;;5057054;28;20056;-62
2023/10/22 11:52:40;;;;;;;7.23;1.70;;;;;;;;;;5068489;28;20051;-61
2023/10/22 11:55:07;;;;;;;4.23;1.40;;;;;;;;;;5069294;28;20048;-62
2023/10/22 11:57:37;;;;;;;4.37;1.30;;;;;;;;;;5067283;28;20040;-62
2023/10/22 12:00:04;;;;;;;2.53;1.23;;;;;;;;;;5069373;28;20098;-62
2023/10/22 12:02:30;;;;;;;3.67;1.20;;;;;;;;;;5069091;28;20084;-61
2023/10/22 12:04:57;;;;;;;5.07;1.13;;;;;;;;;;5069737;28;20055;-61
2023/10/22 12:07:23;;;;;;;2.27;0.70;;;;;;;;;;5068910;28;20090;-61
2023/10/22 12:09:49;;;;;;;4.07;1.00;;;;;;;;;;5069939;28;20052;-62
2023/10/22 12:12:16;;;;;;;5.40;0.77;;;;;;;;;;5067226;28;20044;-61
2023/10/22 12:14:42;;;;;;;2.53;0.50;;;;;;;;;;5048725;28;20055;-62
2023/10/22 12:17:08;;;;;;;2.93;0.73;;;;;;;;;;5050031;28;20041;-62
2023/10/22 12:19:34;;;;;;;3.57;0.80;;;;;;;;;;5049501;28;20450;-61
2023/10/22 12:22:00;;;;;;;2.93;0.50;;;;;;;;;;5068634;28;20055;-61
2023/10/22 12:24:26;;;;;;;2.73;0.83;;;;;;;;;;5069040;28;20052;-61
2023/10/22 12:26:52;;;;;;;3.13;0.53;;;;;;;;;;5069298;28;20793;-61
2023/10/22 12:29:18;;;;;;;3.90;0.70;;;;;;;;;;5053759;28;20087;-61
2023/10/22 12:31:44;;;;;;;2.57;0.77;;;;;;;;;;5048812;28;20045;-61
2023/10/22 12:34:10;;;;;;;3.43;0.70;;;;;;;;;;5049178;28;20856;-61
2023/10/22 12:36:36;;;;;;;4.43;0.80;;;;;;;;;;5049048;28;20041;-61
2023/10/22 12:39:03;;;;;;;6.53;0.63;;;;;;;;;;5049665;28;20084;-61
2023/10/22 12:41:29;;;;;;;2.63;0.67;;;;;;;;;;5049390;28;20114;-61
2023/10/22 12:43:55;;;;;;;2.43;0.50;;;;;;;;;;5048921;28;21139;-61
2023/10/22 12:46:21;;;;;;;2.47;0.70;;;;;;;;;;5048974;28;20091;-61
2023/10/22 12:48:47;;;;;;;2.00;0.90;;;;;;;;;;5049404;28;20049;-61
2023/10/22 12:51:13;;;;;;;4.07;0.80;;;;;;;;;;5048738;28;20045;-61
2023/10/22 12:53:39;;;;;;;4.07;0.80;;;;;;;;;;5049385;28;20040;-60
2023/10/22 12:56:07;;;;;;;3.50;0.80;;;;;;;;;;5048989;28;20049;-61
2023/10/22 12:58:34;;;;;;;5.00;0.87;;;;;;;;;;5049385;28;20126;-60
2023/10/22 13:01:00;;;;;;;3.30;0.50;;;;;;;;;;5048558;28;20064;-61
2023/10/22 13:03:26;;;;;;;5.50;0.90;;;;;;;;;;5048818;28;20561;-61
2023/10/22 13:05:52;;;;;;;2.50;0.60;;;;;;;;;;5049044;28;20049;-60
2023/10/22 13:08:19;;;;;;;4.07;0.70;;;;;;;;;;5049149;28;20521;-61
2023/10/22 13:10:49;;;;;;;5.83;0.90;;;;;;;;;;5048601;28;20235;-61
2023/10/22 13:13:15;;;;;;;1.50;0.43;;;;;;;;;;5061299;28;20447;-60
2023/10/22 13:15:41;;;;;;;2.50;0.87;;;;;;;;;;5068742;28;20051;-60
2023/10/22 13:18:07;;;;;;;4.43;0.50;;;;;;;;;;5068679;28;20041;-61
2023/10/22 13:20:33;;;;;;;5.17;0.60;;;;;;;;;;5068371;28;20041;-61
2023/10/22 13:22:59;;;;;;;1.87;0.60;;;;;;;;;;5069017;28;20056;-61
2023/10/22 13:25:26;;;;;;;3.37;0.77;;;;;;;;;;5068494;28;20139;-60
2023/10/22 13:27:52;;;;;;;2.90;0.80;;;;;;;;;;5068326;28;20102;-60
2023/10/22 13:30:18;;;;;;;3.43;0.70;;;;;;;;;;5067679;28;20387;-60
2023/10/22 13:32:45;;;;;;;3.53;0.73;;;;;;;;;;5068323;28;20127;-60
2023/10/22 13:35:11;;;;;;;6.07;0.80;;;;;;;;;;5068164;28;20093;-60
2023/10/22 13:37:37;;;;;;;2.07;0.60;;;;;;;;;;5068833;28;20055;-60
2023/10/22 13:40:03;;;;;;;3.53;0.77;;;;;;;;;;5068783;28;20064;-60
2023/10/22 13:42:29;;;;;;;7.23;0.60;;;;;;;;;;5067630;28;20048;-60
2023/10/22 13:44:56;;;;;;;3.63;0.73;;;;;;;;;;5067838;28;20052;-60
2023/10/22 13:47:22;;;;;;;2.33;0.47;;;;;;;;;;5067978;28;20037;-60
2023/10/22 13:49:48;;;;;;;3.37;0.70;;;;;;;;;;5068762;28;20040;-60
2023/10/22 13:52:15;;;;;;;2.93;0.47;;;;;;;;;;5067824;28;20058;-60
2023/10/22 13:54:41;;;;;;;2.80;0.43;;;;;;;;;;5068703;28;20044;-60
2023/10/22 13:57:07;;;;;;;3.27;0.60;;;;;;;;;;5067306;28;20049;-60
2023/10/22 13:59:34;;;;;;;2.23;0.73;;;;;;;;;;5067840;28;20098;-60
2023/10/22 14:02:00;;;;;;;3.90;0.70;;;;;;;;;;5068292;28;20053;-60
2023/10/22 14:04:26;;;;;;;2.57;0.80;;;;;;;;;;5068180;28;20048;-60
2023/10/22 14:06:52;;;;;;;3.03;0.80;;;;;;;;;;5068382;28;20040;-60
2023/10/22 14:09:19;;;;;;;4.37;0.80;;;;;;;;;;5068525;28;20041;-60
2023/10/22 14:11:47;;;;;;;3.40;0.70;;;;;;;;;;5067477;28;20798;-60
2023/10/22 14:14:13;;;;;;;5.67;0.90;;;;;;;;;;5068251;28;20511;-60
2023/10/22 14:16:39;;;;;;;7.07;0.90;;;;;;;;;;5068069;28;20049;-60
2023/10/22 14:19:05;;;;;;;3.33;0.70;;;;;;;;;;5068585;28;20231;-60
2023/10/22 14:21:31;;;;;;;4.90;1.00;;;;;;;;;;5068218;28;20075;-61
2023/10/22 14:23:57;;;;;;;4.73;1.17;;;;;;;;;;5066583;28;20094;-60
2023/10/22 14:26:23;;;;;;;3.47;0.70;;;;;;;;;;5046576;28;20088;-60
2023/10/22 14:28:49;;;;;;;2.07;0.57;;;;;;;;;;5048084;28;20056;-60
2023/10/22 14:31:16;;;;;;;4.80;0.77;;;;;;;;;;5048388;28;20076;-60
2023/10/22 14:33:42;;;;;;;4.50;1.53;;;;;;;;;;5051748;28;20423;-60
2023/10/22 14:36:08;;;;;;;5.50;1.63;;;;;;;;;;5065798;28;20041;-60
2023/10/22 14:38:34;;;;;;;6.73;1.37;;;;;;;;;;5067792;28;20586;-60
2023/10/22 14:41:01;;;;;;;3.83;0.70;;;;;;;;;;5047972;28;20057;-60